Terminal Aerodrome Forecast
Issued by NWS Milwaukee/Sullivan, WI

Home | Current Version | Previous Version | Text Only | Print | Product List | Glossary On
Versions: 1 2 3 4 5 6 7 8 9 10 11 12 13 14 15 16 17 18 19 20 21 22 23 24 25 26 27 28 29 30
000
FTUS43 KMKX 010321 AAB
TAFMKE
TAF AMD
KMKE 010321Z 0103/0206 04013KT 5SM -RA BR OVC003
      TEMPO 0103/0105 3SM TSRA OVC003CB
     FM010500 06010KT 2SM SHRA BR OVC003
     FM010600 06009KT 1SM -SHRA BR OVC003
     FM010800 14007KT 1/2SM FG VCSH OVC003
     FM010900 17007KT 1/4SM FG VCSH OVC003
     FM011200 20009KT 2SM BR VCSH OVC008
     FM011400 19011KT 4SM BR VCSH OVC020
     FM011600 19013G21KT P6SM VCSH OVC025
     FM011800 20015G24KT 4SM -SHRA BR OVC025
     FM012200 21015G25KT 4SM -SHRA BR OVC015
     FM020000 22013G24KT P6SM OVC015
     FM020100 23012G24KT P6SM OVC020=

USA.gov is the U.S. government's official web portal to all federal, state and local government web resources and services.